Meteorología y climatología de Navarra
Datos de la estación - Meteo Navarra

Estación de Aguilar de Codés GN

Altitud 736 m.


Datos desde el 26/03/2020 hasta el 27/03/2020 en horario solar
Los datos son PROVISIONALES

Anterior Página 1 de 1 Siguiente Descargar: Formato para Excel 2000 o superior   Formato csv   Formato para OpenOffice Calc
Fecha Temperatura Humedad relativa Radiación global Insolación Precipitación Vel. viento 10 m Vel. viento 10 m Dir. viento 10 m
ºC % W/m² s l/m² m/s km/h º
26/03/2020 0:00 2.8 80 0.0 0 0.0 5.2 18.6 313
26/03/2020 0:10 2.8 80 0.0 0 0.0 5.3 19.0 309
26/03/2020 0:20 3.2 79 0.0 0 0.0 5.1 18.3 307
26/03/2020 0:30 3.0 79 0.0 0 0.0 5.2 18.7 314
26/03/2020 0:40 3.0 80 0.0 0 0.0 5.3 19.0 315
26/03/2020 0:50 3.0 81 0.0 0 0.0 4.8 17.1 318
26/03/2020 1:00 3.2 82 0.0 0 0.0 3.6 12.9 291
26/03/2020 1:10 3.1 82 0.0 0 0.0 4.8 17.3 307
26/03/2020 1:20 3.2 82 0.0 0 0.0 5.1 18.2 305
26/03/2020 1:30 3.4 82 0.0 0 0.0 5.0 18.0 310
26/03/2020 1:40 3.4 81 0.0 0 0.0 5.3 18.9 305
26/03/2020 1:50 3.4 81 0.0 0 0.0 4.6 16.5 296
26/03/2020 2:00 3.6 82 0.0 0 0.0 4.4 15.7 294
26/03/2020 2:10 3.3 82 0.0 0 0.0 4.8 17.2 301
26/03/2020 2:20 3.3 82 0.0 0 0.0 5.1 18.3 301
26/03/2020 2:30 3.4 83 0.0 0 0.0 5.2 18.6 304
26/03/2020 2:40 3.2 83 0.0 0 0.0 4.4 15.8 301
26/03/2020 2:50 3.2 83 0.0 0 0.0 3.8 13.6 310
26/03/2020 3:00 3.4 83 0.0 0 0.0 4.1 14.7 292
26/03/2020 3:10 3.5 85 0.0 0 0.0 4.4 15.7 291
26/03/2020 3:20 3.5 86 0.0 0 0.0 4.4 15.9 286
26/03/2020 3:30 3.8 85 0.0 0 0.0 3.8 13.5 296
26/03/2020 3:40 3.8 85 0.0 0 0.0 4.7 16.8 295
26/03/2020 3:50 3.7 84 0.0 0 0.0 4.7 16.9 275
26/03/2020 4:00 3.8 84 0.0 0 0.0 4.3 15.5 271
26/03/2020 4:10 3.7 84 0.0 0 0.0 4.7 17.0 270
26/03/2020 4:20 3.8 84 0.0 0 0.0 4.5 16.3 282
26/03/2020 4:30 3.7 84 0.0 0 0.0 4.2 15.1 282
26/03/2020 4:40 3.7 85 0.0 0 0.0 4.6 16.5 280
26/03/2020 4:50 3.8 84 0.0 0 0.0 4.3 15.4 273
26/03/2020 5:00 3.8 84 0.0 0 0.0 4.7 16.9 275
26/03/2020 5:10 3.8 84 0.0 0 0.0 4.4 15.7 283
26/03/2020 5:20 3.8 84 0.0 0 0.0 4.2 15.0 294
26/03/2020 5:30 3.7 84 0.0 0 0.0 4.4 15.9 290
26/03/2020 5:40 3.6 84 0.0 0 0.0 4.7 16.8 288
26/03/2020 5:50 3.8 83 0.0 0 0.0 4.8 17.4 296
26/03/2020 6:00 3.8 82 0.0 0 0.0 4.8 17.4 300
26/03/2020 6:10 3.8 81 0.0 0 0.0 5.1 18.2 294
26/03/2020 6:20 3.8 81 0.0 0 0.0 5.5 19.7 301
26/03/2020 6:30 3.7 82 0.0 0 0.0 5.9 21.2 295
26/03/2020 6:40 3.9 81 7.1 0 0.0 5.9 21.3 301
26/03/2020 6:50 3.9 82 2.2 0 0.0 5.0 18.0 298
26/03/2020 7:00 3.9 82 18.9 0 0.0 6.3 22.8 304
26/03/2020 7:10 4.0 81 36.5 0 0.0 6.3 22.6 300
26/03/2020 7:20 4.1 81 53.1 0 0.0 6.8 24.5 303
26/03/2020 7:30 4.1 80 57.3 0 0.0 5.6 20.3 308
26/03/2020 7:40 4.3 79 99.3 0 0.0 5.5 19.7 309
26/03/2020 7:50 4.4 79 66.2 24 0.0 6.4 22.9 316
26/03/2020 8:00 4.3 78 61.0 0 0.0 7.2 26.1 308
26/03/2020 8:10 4.4 78 82.4 2 0.0 5.2 18.5 312
26/03/2020 8:20 4.5 78 195.6 154 0.0 6.5 23.4 316
26/03/2020 8:30 4.9 74 124.2 40 0.0 8.7 31.4 322
26/03/2020 8:40 4.9 73 123.9 0 0.0 10.8 38.8 327
26/03/2020 8:50 5.1 68 274.3 238 0.0 11.1 40.1 326
26/03/2020 9:00 5.4 65 195.0 26 0.0 9.1 32.8 324
26/03/2020 9:10 5.2 66 170.1 4 0.0 9.3 33.3 325
26/03/2020 9:20 5.5 64 422.8 304 0.0 9.8 35.4 326
26/03/2020 9:30 5.3 63 69.1 0 0.0 11.5 41.4 326
26/03/2020 9:40 5.3 63 356.6 234 0.0 10.9 39.1 327
26/03/2020 9:50 5.5 59 325.3 182 0.0 8.1 29.2 330
26/03/2020 10:00 5.9 56 533.2 362 0.0 6.2 22.2 337
26/03/2020 10:10 5.9 56 142.5 0 0.0 5.9 21.1 329
26/03/2020 10:20 5.7 58 340.5 152 0.0 6.3 22.5 324
26/03/2020 10:30 5.9 57 341.8 104 0.0 6.5 23.3 328
26/03/2020 10:40 6.1 51 481.9 250 0.0 8.9 32.0 330
26/03/2020 10:50 6.5 48 686.1 420 0.0 7.0 25.0 329
26/03/2020 11:00 6.5 48 567.9 300 0.0 5.9 21.1 328
26/03/2020 11:10 6.7 49 819.0 540 0.0 6.1 21.9 350
26/03/2020 11:20 6.7 47 809.0 556 0.0 6.6 23.7 337
26/03/2020 11:30 7.2 46 884.0 576 0.0 5.3 19.1 342
26/03/2020 11:40 6.8 45 722.8 434 0.0 8.5 30.6 1
26/03/2020 11:50 6.7 47 596.6 302 0.0 5.4 19.5 348
26/03/2020 12:00 6.6 46 581.2 326 0.0 5.4 19.3 349
26/03/2020 12:10 7.3 46 986.0 598 0.0 5.1 18.4 339
26/03/2020 12:20 7.3 46 853.0 536 0.0 6.5 23.5 351
26/03/2020 12:30 7.3 46 1044.0 600 0.0 4.1 14.7 337
26/03/2020 12:40 7.6 47 882.0 550 0.0 5.8 20.7 350
26/03/2020 12:50 7.2 48 811.0 532 0.0 5.5 19.9 356
26/03/2020 13:00 7.1 46 879.0 600 0.0 4.1 14.6 324
26/03/2020 13:10 7.1 47 790.5 510 0.0 5.1 18.4 338
26/03/2020 13:20 7.0 47 869.0 600 0.0 7.9 28.3 324
26/03/2020 13:30 7.0 47 811.0 540 0.0 10.2 36.8 320
26/03/2020 13:40 6.9 47 835.0 564 0.0 5.7 20.4 320
26/03/2020 13:50 7.3 47 862.0 600 0.0 8.2 29.4 318
26/03/2020 14:00 7.1 46 803.0 600 0.0 8.5 30.7 321
26/03/2020 14:10 7.2 47 777.4 600 0.0 8.6 31.1 315
26/03/2020 14:20 7.1 46 748.4 600 0.0 10.6 38.2 328
26/03/2020 14:30 7.2 45 725.9 600 0.0 6.8 24.6 333
26/03/2020 14:40 7.1 44 699.3 600 0.0 7.0 25.3 347
26/03/2020 14:50 7.1 45 701.3 600 0.0 8.2 29.4 317
26/03/2020 15:00 7.0 44 618.8 536 0.0 6.9 24.9 323
26/03/2020 15:10 7.0 44 561.7 538 0.0 6.8 24.4 313
26/03/2020 15:20 6.5 46 529.5 490 0.0 10.2 36.8 322
26/03/2020 15:30 6.7 46 552.3 540 0.0 9.5 34.2 321
26/03/2020 15:40 6.7 47 403.9 388 0.0 8.6 30.9 329
26/03/2020 15:50 6.2 48 388.7 414 0.0 8.7 31.2 330
26/03/2020 16:00 6.4 49 492.7 600 0.0 10.3 37.0 328
26/03/2020 16:10 6.1 49 445.3 600 0.0 10.8 39.0 332
26/03/2020 16:20 6.1 49 417.0 600 0.0 9.9 35.6 339
26/03/2020 16:30 6.1 50 375.2 600 0.0 9.3 33.6 339
26/03/2020 16:40 5.8 51 331.9 600 0.0 11.5 41.5 351
26/03/2020 16:50 5.6 50 306.5 600 0.0 9.1 32.8 351
26/03/2020 17:00 5.3 50 262.0 600 0.0 11.2 40.1 355
26/03/2020 17:10 5.0 50 142.6 276 0.0 10.6 38.2 351
26/03/2020 17:20 4.7 50 119.7 300 0.0 7.5 27.1 342
26/03/2020 17:30 4.9 51 115.6 394 0.0 7.2 25.8 355
26/03/2020 17:40 4.7 51 87.5 392 0.0 4.9 17.8 344
26/03/2020 17:50 4.5 50 77.0 436 0.0 3.9 14.1 347
26/03/2020 18:00 4.2 51 35.3 0 0.0 3.4 12.3 334
26/03/2020 18:10 4.3 52 31.1 248 0.0 4.9 17.5 319
26/03/2020 18:20 4.1 54 6.4 0 0.0 4.3 15.4 330
26/03/2020 18:30 3.9 54 0.0 0 0.0 7.2 25.8 325
26/03/2020 18:40 3.8 55 0.0 0 0.0 7.3 26.1 335
26/03/2020 18:50 3.7 56 0.0 0 0.0 7.9 28.4 332
26/03/2020 19:00 3.6 57 0.0 0 0.0 6.6 23.9 331
26/03/2020 19:10 3.6 58 0.0 0 0.0 5.6 20.0 336
26/03/2020 19:20 3.5 59 0.0 0 0.0 7.3 26.4 322
26/03/2020 19:30 3.4 59 0.0 0 0.0 7.1 25.5 331
26/03/2020 19:40 3.3 61 0.0 0 0.0 7.8 28.0 322
26/03/2020 19:50 2.9 62 0.0 0 0.0 6.6 23.7 324
26/03/2020 20:00 2.7 64 0.0 0 0.0 6.4 23.0 327
26/03/2020 20:10 2.8 64 0.0 0 0.0 7.0 25.0 330
26/03/2020 20:20 2.8 63 0.0 0 0.0 7.1 25.4 322
26/03/2020 20:30 2.6 65 0.0 0 0.0 7.5 27.1 327
26/03/2020 20:40 2.4 63 0.0 0 0.0 7.4 26.5 339
26/03/2020 20:50 2.3 59 0.0 0 0.0 7.9 28.4 322
26/03/2020 21:00 1.8 61 0.0 0 0.0 7.8 28.2 326
26/03/2020 21:10 1.7 62 0.0 0 0.0 7.8 28.2 324
26/03/2020 21:20 1.6 62 0.0 0 0.0 7.2 25.8 325
26/03/2020 21:30 1.4 63 0.0 0 0.0 6.3 22.5 326
26/03/2020 21:40 1.2 64 0.0 0 0.0 5.0 17.9 345
26/03/2020 21:50 1.0 67 0.0 0 0.0 4.6 16.6 342
26/03/2020 22:00 0.9 68 0.0 0 0.0 4.9 17.8 344
26/03/2020 22:10 0.9 69 0.0 0 0.0 4.6 16.6 344
26/03/2020 22:20 0.3 71 0.0 0 0.0 4.1 14.8 344
26/03/2020 22:30 0.0 73 0.0 0 0.0 3.0 10.8 332
26/03/2020 22:40 0.1 73 0.0 0 0.0 1.8 6.6 309
26/03/2020 22:50 0.1 73 0.0 0 0.0 1.4 4.9 311
26/03/2020 23:00 0.1 73 0.0 0 0.0 2.3 8.4 302
26/03/2020 23:10 0.2 73 0.0 0 0.0 2.7 9.8 310
26/03/2020 23:20 0.2 73 0.0 0 0.0 3.5 12.6 305
26/03/2020 23:30 0.4 72 0.0 0 0.0 3.0 10.8 289
26/03/2020 23:40 0.4 73 0.0 0 0.0 1.9 7.0 286
26/03/2020 23:50 0.3 74 0.0 0 0.0 2.6 9.4 290
Anterior Página 1 de 1 Siguiente

NOTA: Tipo de datos según el color:
   - Valores diarios o 10 minutos correctos
   - Valores diarios calculados a partir de un número de datos 10 minutos menor que 144 y mayor que 120, o de un número de datos semihorarios menor que 48 y mayor que 40 (caso de las estaciones de INTIA y del Ministerio)
   - Valores diez minutos estimados


Contacto        Enlaces        Aviso legal